Time;durP1;ratioP1;P1;durP2;ratioP2;P2;SDS_P1;SDS_P2;PMS_P1;PMS_P2;Temp;Humidity;BMP_temperature;BMP_pressure;BME280_temperature;BME280_humidity;BME280_pressure;Samples;Min_cycle;Max_cycle;Signal;HPM_P1;HPM_P2
2023/09/07 00:01:08;;;;;;;3.85;2.97;;;15.10;99.90;;;;;;4964084;28;20054;-84
2023/09/07 00:03:40;;;;;;;4.50;3.97;;;15.00;99.90;;;;;;4979838;28;20030;-84
2023/09/07 00:06:09;;;;;;;4.65;2.78;;;15.10;99.90;;;;;;4975471;28;20019;-85
2023/09/07 00:08:34;;;;;;;6.00;2.60;;;15.10;99.90;;;;;;4963601;28;20034;-85
2023/09/07 00:11:04;;;;;;;3.17;2.92;;;15.00;99.90;;;;;;4976380;28;20080;-85
2023/09/07 00:13:30;;;;;;;2.63;2.40;;;14.90;99.90;;;;;;4978530;28;20026;-85
2023/09/07 00:16:00;;;;;;;4.80;2.17;;;14.90;99.90;;;;;;4962410;28;20322;-85
2023/09/07 00:18:25;;;;;;;;;;;14.80;99.90;;;;;;4960752;28;20030;-84
2023/09/07 00:20:51;;;;;;;6.95;2.63;;;14.80;99.90;;;;;;4965397;28;19906;-85
2023/09/07 00:23:16;;;;;;;5.18;2.85;;;14.70;99.90;;;;;;4974097;28;20034;-85
2023/09/07 00:25:42;;;;;;;2.85;2.65;;;14.70;99.90;;;;;;4973832;28;20491;-86
2023/09/07 00:28:08;;;;;;;6.18;3.25;;;14.70;99.90;;;;;;4970937;28;20054;-85
2023/09/07 00:30:33;;;;;;;4.85;3.85;;;14.70;99.90;;;;;;4975682;28;20050;-86
2023/09/07 00:32:59;;;;;;;4.45;3.45;;;14.70;99.90;;;;;;4980464;28;20022;-87
2023/09/07 00:38:22;;;;;;;3.63;3.30;;;14.90;99.90;;;;;;4987968;28;20085;-87
2023/09/07 00:40:48;;;;;;;3.45;3.15;;;14.90;99.90;;;;;;4973676;28;20022;-86
2023/09/07 00:43:13;;;;;;;5.80;2.50;;;14.90;99.90;;;;;;4981341;28;20053;-87
2023/09/07 00:45:43;;;;;;;5.00;3.17;;;14.80;99.90;;;;;;4980325;28;20103;-85
2023/09/07 00:48:11;;;;;;;3.65;3.05;;;14.70;99.90;;;;;;4983421;28;20133;-86
2023/09/07 00:50:37;;;;;;;4.85;2.60;;;14.60;99.90;;;;;;4978573;28;20030;-85
2023/09/07 00:53:13;;;;;;;3.75;3.10;;;14.50;99.90;;;;;;4997137;28;20378;-85
2023/09/07 00:55:40;;;;;;;3.85;3.17;;;14.50;99.90;;;;;;4998635;28;20081;-85
2023/09/07 01:00:54;;;;;;;12.77;3.80;;;14.60;99.90;;;;;;4995271;28;20029;-85
2023/09/07 01:03:21;;;;;;;3.70;2.97;;;14.50;99.90;;;;;;4982733;28;20226;-85
2023/09/07 01:19:35;;;;;;;3.63;2.70;;;14.30;99.90;;;;;;5002517;28;20114;-84
2023/09/07 01:22:03;;;;;;;3.25;3.00;;;14.30;99.90;;;;;;4974455;28;20046;-85
2023/09/07 01:24:30;;;;;;;3.88;2.80;;;14.30;99.90;;;;;;5000235;28;20030;-85
2023/09/07 01:26:57;;;;;;;5.85;3.75;;;14.30;99.90;;;;;;4968151;28;20046;-85
2023/09/07 01:29:26;;;;;;;5.22;2.92;;;14.30;99.90;;;;;;5002863;28;20113;-85
2023/09/07 01:35:30;;;;;;;4.25;3.22;;;14.30;99.90;;;;;;4986386;28;20109;-86
2023/09/07 01:37:56;;;;;;;3.13;2.83;;;13.70;99.90;;;;;;4982565;28;20042;-85
2023/09/07 01:40:22;;;;;;;3.47;3.17;;;14.30;99.90;;;;;;4986526;28;20026;-86
2023/09/07 01:42:47;;;;;;;4.18;2.60;;;14.30;99.90;;;;;;4986317;28;20034;-85
2023/09/07 01:48:42;;;;;;;4.78;3.22;;;14.20;99.90;;;;;;5011032;28;20426;-84
2023/09/07 01:51:08;;;;;;;6.15;3.78;;;14.20;99.90;;;;;;4986562;28;20038;-85
2023/09/07 01:53:34;;;;;;;5.10;2.97;;;14.20;99.90;;;;;;4987543;28;20027;-84
2023/09/07 01:55:59;;;;;;;3.58;2.67;;;14.20;99.90;;;;;;4985440;28;20038;-85
2023/09/07 01:58:25;;;;;;;4.85;3.10;;;14.10;99.90;;;;;;5003501;28;20022;-85
2023/09/07 02:00:56;;;;;;;6.13;3.17;;;14.10;99.90;;;;;;4982108;28;20138;-85
2023/09/07 02:03:22;;;;;;;4.20;3.38;;;14.00;99.90;;;;;;4983428;28;20030;-85
2023/09/07 02:05:49;;;;;;;3.88;2.72;;;14.00;99.90;;;;;;4974181;28;20124;-85
2023/09/07 02:11:18;;;;;;;3.55;3.05;;;14.00;99.90;;;;;;4997533;28;20090;-83
2023/09/07 02:13:46;;;;;;;3.25;2.95;;;13.90;99.90;;;;;;4976855;28;20054;-83
2023/09/07 02:16:11;;;;;;;2.60;2.40;;;13.80;99.90;;;;;;4980431;28;20026;-83
2023/09/07 02:18:39;;;;;;;12.57;3.55;;;13.80;99.90;;;;;;4980487;28;20031;-83
2023/09/07 02:21:06;;;;;;;3.63;2.97;;;13.90;99.90;;;;;;4980944;28;20037;-83
2023/09/07 02:23:32;;;;;;;9.35;3.53;;;14.00;99.90;;;;;;4964505;28;20051;-84
2023/09/07 02:26:00;;;;;;;3.78;2.90;;;14.00;99.90;;;;;;4997156;28;20015;-84
2023/09/07 02:28:25;;;;;;;5.32;2.75;;;14.00;99.90;;;;;;4989943;28;20065;-82
2023/09/07 02:30:53;;;;;;;4.47;3.75;;;14.00;99.90;;;;;;4994770;28;20218;-83
2023/09/07 02:33:19;;;;;;;2.53;2.33;;;14.00;99.90;;;;;;4978840;28;20061;-83
2023/09/07 02:35:55;;;;;;;2.90;2.55;;;13.90;99.90;;;;;;4983336;28;20023;-82
2023/09/07 02:38:21;;;;;;;6.93;2.88;;;14.00;99.90;;;;;;5000016;28;20030;-82
2023/09/07 02:40:54;;;;;;;3.20;2.90;;;14.00;99.90;;;;;;5009621;28;20237;-83
2023/09/07 02:43:20;;;;;;;6.10;3.60;;;13.90;99.90;;;;;;4980076;28;20049;-84
2023/09/07 02:45:45;;;;;;;3.88;3.17;;;13.90;99.90;;;;;;4976525;28;20050;-84
2023/09/07 02:48:11;;;;;;;5.18;3.20;;;13.90;99.90;;;;;;4993619;28;20054;-83
2023/09/07 02:50:37;;;;;;;3.15;2.85;;;13.90;99.90;;;;;;4980115;28;20037;-83
2023/09/07 02:53:04;;;;;;;4.63;3.85;;;13.80;99.90;;;;;;4996083;28;20022;-84
2023/09/07 02:55:30;;;;;;;5.32;3.47;;;13.80;99.90;;;;;;4977750;28;20062;-84
2023/09/07 02:57:59;;;;;;;6.18;3.45;;;13.80;99.90;;;;;;4974859;28;20068;-83
2023/09/07 03:00:25;;;;;;;;;;;13.80;99.90;;;;;;4978735;28;20103;-83
2023/09/07 03:02:56;;;;;;;4.18;3.55;;;13.80;99.90;;;;;;4983214;28;19910;-83
2023/09/07 03:05:43;;;;;;;4.75;2.95;;;13.70;99.90;;;;;;4997204;28;20045;-81
2023/09/07 03:08:09;;;;;;;4.75;3.42;;;13.70;99.90;;;;;;5002582;28;20030;-83
2023/09/07 03:11:03;;;;;;;4.15;3.35;;;13.80;99.90;;;;;;4980314;28;20033;-83
2023/09/07 03:13:57;;;;;;;7.13;4.15;;;13.90;99.90;;;;;;4978292;28;20084;-83
2023/09/07 03:16:26;;;;;;;4.53;3.60;;;13.90;99.90;;;;;;4987366;28;20027;-83
2023/09/07 03:18:52;;;;;;;5.25;4.05;;;13.90;99.90;;;;;;4979157;28;20092;-83
2023/09/07 03:21:18;;;;;;;9.75;4.20;;;13.90;99.90;;;;;;4980015;28;20054;-83
2023/09/07 03:23:44;;;;;;;5.05;3.70;;;13.90;99.90;;;;;;4994560;28;20053;-83
2023/09/07 03:26:16;;;;;;;4.88;3.72;;;13.80;99.90;;;;;;4980896;28;20121;-83
2023/09/07 03:28:42;;;;;;;4.30;3.45;;;13.80;99.90;;;;;;4978437;28;20089;-83
2023/09/07 03:31:07;;;;;;;7.47;3.90;;;13.80;99.90;;;;;;4979877;28;20018;-83
2023/09/07 03:34:19;;;;;;;8.63;4.30;;;13.80;99.90;;;;;;4997330;28;20007;-82
2023/09/07 03:36:47;;;;;;;4.65;4.05;;;14.00;99.90;;;;;;4996468;28;20073;-83
2023/09/07 03:39:12;;;;;;;5.70;4.35;;;13.90;99.90;;;;;;4995964;28;20524;-83
2023/09/07 03:41:38;;;;;;;5.43;4.38;;;14.00;99.90;;;;;;4976342;28;20033;-83
2023/09/07 03:44:04;;;;;;;5.55;3.95;;;14.00;99.90;;;;;;4979965;28;20027;-83
2023/09/07 03:46:30;;;;;;;6.13;4.13;;;13.90;99.90;;;;;;4975523;28;20074;-83
2023/09/07 03:48:56;;;;;;;5.93;3.72;;;13.90;99.90;;;;;;4975758;28;20534;-83
2023/09/07 03:51:22;;;;;;;5.65;4.07;;;13.90;99.90;;;;;;4988795;28;20053;-82
2023/09/07 03:54:16;;;;;;;6.07;4.65;;;13.90;99.90;;;;;;4979109;28;20038;-82
2023/09/07 04:00:11;;;;;;;3.78;3.42;;;13.80;99.90;;;;;;4978292;28;20057;-84
2023/09/07 04:03:09;;;;;;;5.23;3.60;;;13.70;99.90;;;;;;4998522;28;20031;-83
2023/09/07 04:09:15;;;;;;;6.05;4.85;;;13.60;99.90;;;;;;5017085;28;20061;-83
2023/09/07 04:12:03;;;;;;;6.93;4.15;;;13.50;99.90;;;;;;5005115;28;20027;-84
2023/09/07 04:18:06;;;;;;;6.05;4.50;;;13.60;99.90;;;;;;5011608;28;20065;-83
2023/09/07 04:20:33;;;;;;;4.55;3.50;;;13.50;99.90;;;;;;4986827;28;20034;-84
2023/09/07 04:22:58;;;;;;;5.93;4.65;;;13.50;99.90;;;;;;4981450;28;20203;-83
2023/09/07 04:25:33;;;;;;;6.97;4.25;;;13.50;99.90;;;;;;4994105;28;20053;-83
2023/09/07 04:28:02;;;;;;;4.65;4.20;;;13.50;99.90;;;;;;4996437;28;20098;-84
2023/09/07 04:34:07;;;;;;;;;;;;;;;;;;;;;
2023/09/07 04:36:51;;;;;;;;;;;;;;;;;;;;;
2023/09/07 04:39:20;;;;;;;8.48;3.78;;;13.30;99.90;;;;;;5021564;28;20026;-82
2023/09/07 04:42:08;;;;;;;8.50;4.32;;;13.30;99.90;;;;;;5005469;28;20038;-83
2023/09/07 04:56:19;;;;;;;5.60;3.25;;;13.20;99.90;;;;;;4982169;28;20038;-82
2023/09/07 04:58:46;;;;;;;7.07;4.40;;;13.20;99.90;;;;;;4962875;29;20090;-84
2023/09/07 05:04:56;;;;;;;4.38;3.50;;;13.20;99.90;;;;;;4923125;29;20024;-81
2023/09/07 05:08:25;;;;;;;4.38;3.67;;;13.20;99.90;;;;;;4910074;29;20031;-82
2023/09/07 05:11:46;;;;;;;7.30;3.30;;;13.20;99.90;;;;;;4907147;29;20109;-82
2023/09/07 05:18:37;;;;;;;5.47;4.57;;;13.30;99.90;;;;;;4909007;29;20039;-82
2023/09/07 05:21:15;;;;;;;7.32;5.53;;;13.30;99.90;;;;;;4937840;29;20098;-82
2023/09/07 05:23:41;;;;;;;6.30;4.55;;;13.40;99.90;;;;;;4942840;29;20059;-78
2023/09/07 05:26:06;;;;;;;5.50;4.28;;;13.50;99.90;;;;;;4943324;29;20065;-82
2023/09/07 05:28:32;;;;;;;7.80;4.45;;;13.60;99.90;;;;;;4945018;29;20120;-79
2023/09/07 05:30:58;;;;;;;4.90;4.20;;;13.70;99.90;;;;;;4943227;29;20115;-78
2023/09/07 05:33:24;;;;;;;8.95;4.72;;;13.60;99.90;;;;;;4958120;29;20151;-78
2023/09/07 05:35:49;;;;;;;7.70;5.07;;;13.70;99.90;;;;;;4944260;29;20030;-77
2023/09/07 05:38:15;;;;;;;10.45;5.07;;;13.80;99.90;;;;;;4945275;29;20046;-78
2023/09/07 05:40:43;;;;;;;6.65;4.75;;;13.90;99.90;;;;;;4947137;29;20061;-78
2023/09/07 05:43:10;;;;;;;6.45;4.22;;;14.00;99.90;;;;;;4944655;29;20228;-79
2023/09/07 05:45:40;;;;;;;12.45;5.70;;;14.00;99.90;;;;;;4958812;29;20042;-77
2023/09/07 05:48:07;;;;;;;7.07;4.55;;;14.10;99.90;;;;;;4978095;28;20042;-78
2023/09/07 05:50:36;;;;;;;7.70;5.10;;;14.20;99.90;;;;;;5000118;28;20250;-79
2023/09/07 05:53:03;;;;;;;7.05;4.43;;;14.30;99.90;;;;;;4996773;28;20109;-79
2023/09/07 05:55:29;;;;;;;6.35;4.88;;;13.80;99.90;;;;;;4992685;28;20085;-84
2023/09/07 05:57:55;;;;;;;7.70;5.20;;;14.30;99.90;;;;;;4990304;28;20031;-78
2023/09/07 06:00:21;;;;;;;10.25;3.90;;;14.40;99.90;;;;;;4989952;28;20030;-79
2023/09/07 06:02:47;;;;;;;11.95;4.20;;;14.40;99.90;;;;;;4990064;28;20551;-79
2023/09/07 06:05:13;;;;;;;7.72;4.25;;;14.50;99.90;;;;;;4990073;28;20101;-79
2023/09/07 06:07:39;;;;;;;7.82;4.93;;;14.60;99.90;;;;;;4990053;28;20471;-77
2023/09/07 06:10:08;;;;;;;5.93;4.75;;;14.70;99.90;;;;;;4972626;28;20045;-79
2023/09/07 06:12:33;;;;;;;5.03;4.45;;;14.80;99.90;;;;;;4991759;28;20061;-80
2023/09/07 06:15:00;;;;;;;6.93;4.95;;;14.90;99.90;;;;;;4991972;28;20038;-82
2023/09/07 06:17:26;;;;;;;6.63;4.63;;;15.00;99.90;;;;;;4991934;28;20076;-80
2023/09/07 06:19:52;;;;;;;8.63;4.85;;;15.10;99.90;;;;;;4990821;28;20053;-78
2023/09/07 06:22:18;;;;;;;7.35;4.72;;;15.20;99.90;;;;;;4973713;28;20476;-79
2023/09/07 06:24:43;;;;;;;7.32;4.95;;;15.30;99.90;;;;;;4973127;28;20027;-80
2023/09/07 06:27:09;;;;;;;6.32;5.10;;;15.40;99.90;;;;;;4991557;28;20022;-82
2023/09/07 06:29:34;;;;;;;6.32;4.60;;;15.40;99.90;;;;;;4991297;28;20485;-78
2023/09/07 06:32:00;;;;;;;9.75;5.75;;;15.50;99.90;;;;;;4973931;28;20033;-80
2023/09/07 06:34:26;;;;;;;6.30;4.60;;;15.60;99.90;;;;;;4991293;28;20114;-79
2023/09/07 06:36:51;;;;;;;7.25;4.07;;;15.70;99.90;;;;;;4991396;28;20026;-79
2023/09/07 06:39:17;;;;;;;7.53;5.03;;;15.80;99.90;;;;;;4991117;28;20030;-79
2023/09/07 06:41:45;;;;;;;7.72;4.72;;;16.00;99.90;;;;;;4991339;28;20386;-78
2023/09/07 06:44:11;;;;;;;14.52;5.55;;;16.10;99.90;;;;;;4991014;28;20048;-81
2023/09/07 06:46:37;;;;;;;8.13;6.03;;;16.30;99.90;;;;;;4973732;28;20112;-77
2023/09/07 06:49:03;;;;;;;6.43;4.57;;;16.40;99.90;;;;;;4990451;28;20054;-80
2023/09/07 06:51:30;;;;;;;5.45;4.68;;;16.50;99.90;;;;;;4990866;28;20210;-78
2023/09/07 06:53:57;;;;;;;11.40;4.00;;;16.60;99.90;;;;;;4990953;28;20125;-78
2023/09/07 06:56:23;;;;;;;7.18;4.72;;;16.60;99.90;;;;;;4991020;28;20471;-78
2023/09/07 06:58:49;;;;;;;10.18;5.00;;;16.70;99.90;;;;;;4990666;28;20097;-79
2023/09/07 07:01:15;;;;;;;10.10;5.25;;;16.90;99.90;;;;;;4990829;28;20078;-79
2023/09/07 07:03:41;;;;;;;7.45;5.10;;;17.00;99.90;;;;;;4990602;28;20038;-78
2023/09/07 07:06:07;;;;;;;7.38;4.07;;;17.00;99.90;;;;;;4991096;28;20114;-78
2023/09/07 07:08:32;;;;;;;5.90;4.10;;;17.20;99.90;;;;;;4973390;28;20427;-80
2023/09/07 07:10:58;;;;;;;7.15;4.78;;;17.20;99.90;;;;;;4990868;28;20133;-81
2023/09/07 07:13:24;;;;;;;9.75;4.80;;;17.40;99.90;;;;;;4990899;28;20027;-79
2023/09/07 07:15:49;;;;;;;7.93;4.90;;;17.40;99.90;;;;;;4990829;28;20026;-81
2023/09/07 07:18:15;;;;;;;8.77;3.92;;;17.60;99.90;;;;;;4990656;28;20555;-80
2023/09/07 07:20:42;;;;;;;4.63;3.97;;;17.70;99.90;;;;;;4990824;28;20026;-79
2023/09/07 07:23:08;;;;;;;5.47;4.13;;;17.80;99.90;;;;;;4972647;28;20034;-78
2023/09/07 07:25:34;;;;;;;15.48;4.38;;;17.90;99.90;;;;;;4990613;28;20033;-80
2023/09/07 07:28:05;;;;;;;10.40;5.32;;;17.90;99.90;;;;;;4990012;28;20088;-80
2023/09/07 07:30:36;;;;;;;8.73;4.03;;;18.00;99.90;;;;;;4989930;28;20046;-79
2023/09/07 07:33:03;;;;;;;6.65;3.92;;;18.10;99.90;;;;;;4989535;28;20597;-80
2023/09/07 07:35:30;;;;;;;9.43;4.90;;;18.10;99.90;;;;;;4989643;28;20027;-77
2023/09/07 07:37:55;;;;;;;5.65;3.67;;;18.30;99.90;;;;;;4992010;28;20026;-79
2023/09/07 07:40:21;;;;;;;5.85;3.80;;;18.40;99.90;;;;;;4989906;28;20026;-79
2023/09/07 07:42:47;;;;;;;8.35;4.40;;;18.50;99.90;;;;;;4989765;28;20022;-78
2023/09/07 07:45:14;;;;;;;8.02;5.13;;;18.70;99.90;;;;;;4969353;28;20038;-79
2023/09/07 07:47:42;;;;;;;5.68;3.75;;;18.80;99.90;;;;;;4972915;28;20038;-79
2023/09/07 07:50:08;;;;;;;9.35;4.07;;;18.90;99.90;;;;;;4992604;28;20104;-79
2023/09/07 07:52:34;;;;;;;5.70;3.50;;;19.00;99.90;;;;;;4992396;28;20030;-79
2023/09/07 07:55:00;;;;;;;6.50;3.65;;;19.20;99.90;;;;;;4992522;28;20463;-79
2023/09/07 07:57:26;;;;;;;8.95;3.95;;;19.40;99.90;;;;;;4990542;28;20098;-79
2023/09/07 07:59:51;;;;;;;9.73;4.07;;;19.40;99.90;;;;;;4991308;28;20030;-78
2023/09/07 08:02:17;;;;;;;8.63;4.25;;;19.50;99.90;;;;;;4993463;28;20251;-79
2023/09/07 08:04:43;;;;;;;5.40;4.10;;;19.60;99.90;;;;;;4974303;28;20050;-82
2023/09/07 08:07:08;;;;;;;5.55;3.92;;;19.70;99.90;;;;;;4993195;28;20077;-84
2023/09/07 08:09:34;;;;;;;6.80;4.15;;;19.80;99.90;;;;;;4991036;28;20085;-79
2023/09/07 08:12:03;;;;;;;5.60;4.15;;;19.80;99.90;;;;;;4972138;28;20507;-78
2023/09/07 08:14:29;;;;;;;5.40;3.85;;;19.90;99.90;;;;;;4975840;28;20023;-79
2023/09/07 08:16:56;;;;;;;5.20;3.50;;;20.00;99.90;;;;;;4993851;28;20034;-80
2023/09/07 08:19:21;;;;;;;5.10;3.38;;;20.10;99.90;;;;;;4989622;28;20640;-79
2023/09/07 08:21:47;;;;;;;4.32;3.80;;;20.40;99.90;;;;;;4972499;28;20270;-79
2023/09/07 08:24:13;;;;;;;6.15;4.57;;;21.10;99.90;;;;;;4972652;28;20022;-79
2023/09/07 08:26:39;;;;;;;5.75;3.65;;;22.40;99.90;;;;;;4989522;28;20254;-78
2023/09/07 08:29:05;;;;;;;6.40;3.60;;;23.50;99.90;;;;;;4993730;28;20104;-78
2023/09/07 08:31:35;;;;;;;4.25;2.90;;;24.40;99.90;;;;;;4994257;28;20028;-78
2023/09/07 08:34:03;;;;;;;4.47;2.70;;;25.00;99.90;;;;;;4971926;28;20674;-78
2023/09/07 08:36:32;;;;;;;2.63;2.42;;;25.70;96.80;;;;;;4972155;28;20098;-79
2023/09/07 08:39:00;;;;;;;4.60;3.42;;;25.40;96.80;;;;;;4989101;28;20037;-78
2023/09/07 08:41:26;;;;;;;3.20;2.63;;;25.70;95.50;;;;;;4970495;28;20395;-78
2023/09/07 08:43:55;;;;;;;3.35;2.83;;;26.30;94.70;;;;;;4989689;28;20038;-79
2023/09/07 08:46:23;;;;;;;4.40;3.05;;;26.60;93.40;;;;;;4989457;28;20109;-79
2023/09/07 08:48:52;;;;;;;4.57;2.75;;;27.30;92.20;;;;;;4971173;28;20046;-78
2023/09/07 08:51:19;;;;;;;3.53;3.00;;;27.10;90.70;;;;;;4989727;28;20118;-81
2023/09/07 08:53:46;;;;;;;3.60;2.40;;;26.70;89.00;;;;;;4989618;28;20454;-78
2023/09/07 08:56:16;;;;;;;2.90;2.70;;;26.40;90.90;;;;;;4989882;28;20130;-79
2023/09/07 08:58:41;;;;;;;3.63;2.85;;;25.90;90.60;;;;;;4990075;28;20107;-80
2023/09/07 09:01:08;;;;;;;3.90;3.22;;;25.20;92.10;;;;;;4993831;28;20105;-79
2023/09/07 09:03:35;;;;;;;6.13;3.60;;;24.90;92.60;;;;;;4989302;28;20181;-81
2023/09/07 09:06:01;;;;;;;5.70;2.88;;;24.50;93.50;;;;;;4990136;28;20022;-79
2023/09/07 09:08:27;;;;;;;10.55;3.60;;;24.40;92.80;;;;;;4995827;28;20478;-80
2023/09/07 09:11:03;;;;;;;4.22;3.20;;;24.70;93.00;;;;;;4997957;28;20030;-80
2023/09/07 09:13:32;;;;;;;2.92;2.55;;;25.20;92.20;;;;;;4992710;28;20105;-80
2023/09/07 09:16:01;;;;;;;4.30;2.83;;;25.80;91.50;;;;;;4975082;28;20030;-81
2023/09/07 09:18:27;;;;;;;3.35;2.70;;;26.30;90.80;;;;;;4992448;28;20030;-80
2023/09/07 09:20:54;;;;;;;6.25;2.97;;;26.40;90.00;;;;;;4991958;28;20026;-79
2023/09/07 09:23:20;;;;;;;4.65;3.20;;;26.50;91.00;;;;;;4991380;28;20030;-77
2023/09/07 09:25:48;;;;;;;5.15;3.03;;;26.80;88.80;;;;;;4974671;28;20101;-80
2023/09/07 09:28:13;;;;;;;4.72;2.85;;;26.60;89.90;;;;;;4975045;28;20042;-76
2023/09/07 09:30:39;;;;;;;2.25;2.05;;;26.40;90.00;;;;;;4975440;28;20031;-78
2023/09/07 09:33:05;;;;;;;3.65;2.95;;;26.70;90.30;;;;;;4992100;28;20022;-75
2023/09/07 09:35:31;;;;;;;2.90;2.40;;;27.10;87.90;;;;;;4992429;28;20236;-75
2023/09/07 09:38:04;;;;;;;2.83;2.63;;;26.70;87.30;;;;;;4992246;28;20390;-75
2023/09/07 09:40:30;;;;;;;3.20;2.70;;;27.40;88.00;;;;;;4974735;28;20026;-77
2023/09/07 09:42:57;;;;;;;5.72;3.08;;;27.50;88.30;;;;;;4992086;28;20495;-75
2023/09/07 09:45:26;;;;;;;2.72;2.38;;;27.60;88.40;;;;;;4974697;28;20034;-75
2023/09/07 09:47:54;;;;;;;3.45;2.50;;;27.80;87.80;;;;;;4992271;28;20591;-78
2023/09/07 09:50:20;;;;;;;5.38;2.90;;;28.20;88.40;;;;;;4992130;28;20081;-80
2023/09/07 09:52:47;;;;;;;6.25;2.88;;;28.20;87.10;;;;;;4975159;28;20485;-81
2023/09/07 09:55:13;;;;;;;8.93;3.30;;;27.70;86.80;;;;;;4978658;28;20061;-81
2023/09/07 09:57:39;;;;;;;2.60;2.40;;;28.00;86.60;;;;;;4985813;28;20034;-82
2023/09/07 10:03:04;;;;;;;13.50;3.33;;;27.20;85.50;;;;;;5002421;28;20073;-81
2023/09/07 10:05:31;;;;;;;4.00;2.25;;;27.40;86.90;;;;;;5003079;28;20026;-81
2023/09/07 10:08:05;;;;;;;7.22;3.20;;;27.50;86.80;;;;;;4985451;28;20314;-81
2023/09/07 10:10:38;;;;;;;3.38;2.80;;;27.20;86.50;;;;;;5002550;28;20030;-82
2023/09/07 10:13:05;;;;;;;2.92;2.72;;;26.60;88.10;;;;;;4984184;28;20133;-81
2023/09/07 10:15:32;;;;;;;5.10;2.75;;;27.10;88.50;;;;;;4984913;28;20110;-81
2023/09/07 10:18:08;;;;;;;4.00;2.42;;;27.60;88.10;;;;;;4984508;28;20098;-81
2023/09/07 10:20:58;;;;;;;3.80;2.38;;;27.50;87.80;;;;;;4983514;28;20088;-81
2023/09/07 10:23:38;;;;;;;4.65;3.03;;;27.60;88.10;;;;;;4983143;28;20048;-81
2023/09/07 10:26:05;;;;;;;2.95;2.20;;;27.50;86.90;;;;;;4985192;28;20183;-81
2023/09/07 10:28:31;;;;;;;6.38;2.63;;;27.60;86.90;;;;;;4980009;28;20170;-81
2023/09/07 10:31:13;;;;;;;3.13;2.70;;;27.90;86.30;;;;;;4976802;28;20026;-81
2023/09/07 10:33:39;;;;;;;7.53;3.70;;;28.30;86.60;;;;;;4974305;28;20022;-81
2023/09/07 10:36:06;;;;;;;3.58;2.35;;;28.70;84.30;;;;;;4990533;28;20427;-81
2023/09/07 10:38:32;;;;;;;4.13;2.33;;;28.70;83.60;;;;;;4991253;28;20448;-81
2023/09/07 10:41:01;;;;;;;3.10;2.60;;;29.00;83.30;;;;;;4990883;28;20030;-81
2023/09/07 10:43:31;;;;;;;;;;;29.40;82.50;;;;;;4991723;28;20026;-81
2023/09/07 10:45:58;;;;;;;5.78;3.08;;;29.80;82.30;;;;;;4973926;28;19992;-82
2023/09/07 10:48:25;;;;;;;3.15;2.22;;;29.50;81.20;;;;;;4991319;28;20511;-82
2023/09/07 10:50:51;;;;;;;4.30;2.72;;;29.20;81.90;;;;;;4991429;28;20590;-82
2023/09/07 10:53:27;;;;;;;3.33;2.83;;;29.30;82.40;;;;;;4973937;28;20026;-81
2023/09/07 10:55:53;;;;;;;3.22;2.70;;;29.30;81.50;;;;;;4991742;28;20041;-81
2023/09/07 10:58:33;;;;;;;3.00;2.75;;;29.20;81.50;;;;;;4974045;28;20030;-81
2023/09/07 11:01:03;;;;;;;6.82;3.15;;;29.30;81.40;;;;;;4973881;28;20033;-81
2023/09/07 11:03:29;;;;;;;2.60;2.22;;;29.50;82.50;;;;;;4974319;28;20042;-81
2023/09/07 11:05:58;;;;;;;5.10;3.17;;;29.40;81.50;;;;;;4990718;28;20076;-81
2023/09/07 11:08:24;;;;;;;5.40;2.67;;;28.90;81.30;;;;;;4991309;28;20035;-82
2023/09/07 11:10:51;;;;;;;3.20;2.95;;;29.10;82.80;;;;;;4974002;28;20027;-81
2023/09/07 11:13:17;;;;;;;4.18;3.30;;;29.10;82.30;;;;;;4973871;28;20031;-81
2023/09/07 11:15:43;;;;;;;4.80;2.55;;;29.40;81.10;;;;;;4973996;28;20027;-79
2023/09/07 11:18:09;;;;;;;3.67;2.25;;;29.50;81.00;;;;;;4973716;28;20041;-82
2023/09/07 11:20:36;;;;;;;3.45;2.47;;;30.20;80.30;;;;;;4991297;28;20033;-81
2023/09/07 11:23:03;;;;;;;3.42;2.97;;;30.60;79.40;;;;;;4973601;28;20041;-81
2023/09/07 11:25:38;;;;;;;3.08;2.35;;;30.70;78.10;;;;;;4973528;28;20026;-82
2023/09/07 11:28:08;;;;;;;3.30;2.60;;;30.80;79.00;;;;;;4990649;28;20060;-78
2023/09/07 11:30:34;;;;;;;6.20;3.22;;;30.80;78.10;;;;;;4973046;28;20137;-81
2023/09/07 11:33:09;;;;;;;3.22;2.22;;;30.20;78.00;;;;;;4972305;28;20110;-80
2023/09/07 11:35:34;;;;;;;2.83;2.63;;;30.00;78.90;;;;;;4990595;28;20034;-79
2023/09/07 11:38:04;;;;;;;4.32;3.25;;;30.10;79.30;;;;;;4990711;28;20365;-79
2023/09/07 11:40:30;;;;;;;17.63;3.20;;;30.10;79.60;;;;;;4990543;28;20018;-80
2023/09/07 11:42:56;;;;;;;3.10;2.63;;;29.90;79.50;;;;;;4990364;28;20037;-79
2023/09/07 11:45:22;;;;;;;3.20;2.90;;;29.70;79.50;;;;;;4972302;28;20030;-81
2023/09/07 11:47:48;;;;;;;4.15;2.30;;;29.50;79.40;;;;;;4972788;28;20046;-79
2023/09/07 11:50:16;;;;;;;2.45;2.33;;;29.50;79.70;;;;;;4972589;28;20116;-79
2023/09/07 11:52:42;;;;;;;3.33;2.47;;;29.70;79.00;;;;;;4972666;28;20037;-79
2023/09/07 11:55:10;;;;;;;3.25;2.47;;;30.50;77.30;;;;;;4990206;28;20030;-81
2023/09/07 11:57:38;;;;;;;2.67;2.47;;;31.40;76.50;;;;;;4972923;28;20364;-81
2023/09/07 12:00:05;;;;;;;4.65;2.63;;;32.50;73.50;;;;;;4972388;28;20023;-79
2023/09/07 12:02:31;;;;;;;2.50;2.30;;;32.80;71.60;;;;;;4972481;28;20491;-80
2023/09/07 12:04:56;;;;;;;4.53;2.67;;;33.00;72.80;;;;;;4989596;28;20042;-79
2023/09/07 12:07:22;;;;;;;1.83;1.73;;;33.10;69.40;;;;;;4972487;28;20022;-80
2023/09/07 12:09:48;;;;;;;2.47;2.28;;;33.20;69.60;;;;;;4972619;28;20574;-80
2023/09/07 12:12:14;;;;;;;3.80;2.40;;;32.80;69.30;;;;;;4990433;28;20060;-79
2023/09/07 12:14:39;;;;;;;4.18;2.45;;;32.50;69.00;;;;;;4972932;28;20066;-79
2023/09/07 12:17:05;;;;;;;7.63;2.53;;;32.70;68.70;;;;;;4972318;28;20541;-79
2023/09/07 12:19:31;;;;;;;2.30;2.10;;;33.30;68.10;;;;;;4972673;28;20488;-80
2023/09/07 12:21:56;;;;;;;2.60;2.35;;;33.50;67.30;;;;;;4989519;28;20266;-80
2023/09/07 12:24:22;;;;;;;2.45;2.22;;;34.00;68.30;;;;;;4972220;28;20603;-79
2023/09/07 12:26:48;;;;;;;2.08;1.98;;;34.30;65.90;;;;;;4990121;28;20029;-78
2023/09/07 12:29:13;;;;;;;3.10;1.95;;;33.50;65.40;;;;;;4972600;28;20037;-78
2023/09/07 12:31:39;;;;;;;3.78;2.13;;;34.00;66.20;;;;;;4974043;28;20026;-82
2023/09/07 12:34:04;;;;;;;2.08;1.83;;;33.50;64.90;;;;;;4973585;28;20165;-83
2023/09/07 12:36:30;;;;;;;2.10;1.90;;;34.20;63.90;;;;;;4973214;28;20014;-83
2023/09/07 12:39:01;;;;;;;2.15;2.00;;;34.00;64.20;;;;;;4973902;28;20035;-81
2023/09/07 12:41:28;;;;;;;4.05;2.05;;;33.40;63.80;;;;;;4973112;28;20365;-79
2023/09/07 12:43:54;;;;;;;2.25;2.15;;;33.80;63.90;;;;;;4973080;28;20061;-82
2023/09/07 12:46:19;;;;;;;3.35;2.38;;;34.10;63.90;;;;;;4976760;28;20058;-81
2023/09/07 12:48:45;;;;;;;2.60;2.03;;;34.30;63.20;;;;;;4976266;28;20046;-79
2023/09/07 12:51:11;;;;;;;2.00;1.75;;;34.70;62.60;;;;;;4976949;28;20022;-81
2023/09/07 12:53:36;;;;;;;3.30;2.38;;;34.70;63.50;;;;;;4977616;28;20364;-83
2023/09/07 12:56:03;;;;;;;3.20;1.83;;;35.50;62.50;;;;;;4994479;28;20368;-85
2023/09/07 12:58:28;;;;;;;1.90;1.80;;;35.20;61.10;;;;;;4977061;28;20089;-81
2023/09/07 13:00:54;;;;;;;1.80;1.60;;;34.20;61.10;;;;;;4976300;28;20027;-82
2023/09/07 13:03:20;;;;;;;3.88;1.88;;;34.40;63.20;;;;;;4994065;28;20037;-79
2023/09/07 13:05:46;;;;;;;2.53;1.98;;;34.60;61.80;;;;;;4976229;28;20026;-80
2023/09/07 13:08:12;;;;;;;1.88;1.77;;;35.60;61.00;;;;;;4976578;28;20091;-80
2023/09/07 13:10:38;;;;;;;2.65;2.45;;;36.40;59.40;;;;;;4976648;28;20032;-80
2023/09/07 13:13:04;;;;;;;2.20;2.03;;;36.50;59.40;;;;;;4976162;28;20574;-79
2023/09/07 13:15:30;;;;;;;8.60;2.33;;;35.80;58.20;;;;;;4976528;28;20179;-80
2023/09/07 13:17:55;;;;;;;1.67;1.23;;;36.40;60.40;;;;;;4976152;28;20486;-79
2023/09/07 13:20:21;;;;;;;1.65;1.55;;;36.80;57.10;;;;;;4975816;28;20524;-80
2023/09/07 13:22:47;;;;;;;1.75;1.65;;;36.40;56.90;;;;;;4975713;28;20080;-80
2023/09/07 13:25:12;;;;;;;2.15;1.55;;;36.70;58.10;;;;;;4975731;28;20174;-81
2023/09/07 13:27:38;;;;;;;2.53;2.03;;;36.10;56.80;;;;;;4975392;28;20018;-80
2023/09/07 13:30:05;;;;;;;2.13;1.90;;;36.30;57.30;;;;;;4983813;28;20411;-80
2023/09/07 13:32:32;;;;;;;3.28;1.98;;;35.60;56.40;;;;;;4965366;28;20496;-79
2023/09/07 13:34:58;;;;;;;1.63;1.52;;;36.20;56.00;;;;;;4964447;28;20170;-78
2023/09/07 13:37:23;;;;;;;2.63;2.13;;;37.50;56.40;;;;;;4975743;28;20102;-77
2023/09/07 13:39:49;;;;;;;3.63;1.92;;;37.10;55.70;;;;;;4973092;28;20026;-75
2023/09/07 13:42:15;;;;;;;2.20;1.85;;;36.90;56.70;;;;;;4956184;28;20027;-83
2023/09/07 13:44:40;;;;;;;1.80;1.63;;;36.60;57.20;;;;;;4956121;28;20027;-80
2023/09/07 13:47:08;;;;;;;6.35;2.42;;;37.00;58.30;;;;;;4955946;28;20023;-82
2023/09/07 13:49:34;;;;;;;3.20;2.05;;;36.40;56.20;;;;;;4956438;28;20126;-80
2023/09/07 13:51:59;;;;;;;1.77;1.65;;;36.70;58.40;;;;;;4956423;28;20086;-83
2023/09/07 13:54:25;;;;;;;1.73;1.63;;;36.30;55.50;;;;;;4973171;28;20487;-84
2023/09/07 13:56:50;;;;;;;2.15;1.80;;;35.80;56.90;;;;;;4972551;28;20037;-82
2023/09/07 13:59:16;;;;;;;5.22;1.83;;;35.90;56.50;;;;;;4955894;28;20045;-83
2023/09/07 14:01:42;;;;;;;2.95;2.15;;;36.10;57.80;;;;;;4956248;28;20042;-80